Oakdale, Massachusetts
Current Conditions -  °F | °C
As of 10:54 AM on Saturday 25 Oct 2014 (Local Time) from KORH Reporting Station
Clear Clear  
Wind Chill: 53°   Ceiling: Unl
Heat Index: 53°   Visibility: 10mi
Dew Point: 40°   Wind: 9mph
Humidity: 61%   Direction: 270°W
Pressure: 29.74"   Gusts: NA
Location:  42.37°N, 71.7814°W
Report Text: KORH 251454Z 27008KT 10SM CLR 12/04 A2974 RMK AO2 SLP074 T01170044 58011
Loading
Personal Weather Stations






























Interactive Weather Map
Tropical Storm Tracking
New forecast layout! Learn more

10-Day Weather Forecast

Advertisements
Track Severe Weather on mobile